createdAt,value
2018-12-19T00:01:27.117Z,21.10
2018-12-19T00:03:54.941Z,22.07
2018-12-19T00:06:23.018Z,21.47
2018-12-19T00:08:50.782Z,22.17
2018-12-19T00:11:18.638Z,22.37
2018-12-19T00:13:47.567Z,22.23
2018-12-19T00:16:15.279Z,22.40
2018-12-19T00:18:43.051Z,23.40
2018-12-19T00:21:10.851Z,23.07
2018-12-19T00:23:38.567Z,22.50
2018-12-19T00:26:06.347Z,22.47
2018-12-19T00:28:34.221Z,22.30
2018-12-19T00:31:02.092Z,22.23
2018-12-19T00:33:29.847Z,23.40
2018-12-19T00:35:57.590Z,22.77
2018-12-19T00:38:25.325Z,23.40
2018-12-19T00:40:53.075Z,24.53
2018-12-19T00:43:20.848Z,23.53
2018-12-19T00:45:48.610Z,22.87
2018-12-19T00:48:16.343Z,23.97
2018-12-19T00:50:45.052Z,24.40
2018-12-19T00:53:12.819Z,23.67
2018-12-19T00:55:40.566Z,23.87
2018-12-19T00:58:08.309Z,23.97
2018-12-19T01:00:36.410Z,22.87
2018-12-19T01:03:04.279Z,21.87
2018-12-19T01:05:32.085Z,22.67
2018-12-19T01:07:59.939Z,23.17
2018-12-19T01:10:27.835Z,22.23
2018-12-19T01:12:55.547Z,21.90
2018-12-19T01:15:23.316Z,21.17
2018-12-19T01:17:51.081Z,20.43
2018-12-19T01:20:18.998Z,20.37
2018-12-19T01:22:46.776Z,23.37
2018-12-19T01:25:14.546Z,23.13
2018-12-19T01:27:42.283Z,22.10
2018-12-19T01:30:10.051Z,22.97
2018-12-19T01:32:38.027Z,24.50
2018-12-19T01:35:05.945Z,24.90
2018-12-19T01:37:35.123Z,24.63
2018-12-19T01:40:03.511Z,24.00
2018-12-19T01:42:31.311Z,24.60
2018-12-19T01:44:59.077Z,24.40
2018-12-19T01:47:26.871Z,18.07
2018-12-19T01:49:54.590Z,15.87
2018-12-19T01:52:22.343Z,15.63
2018-12-19T01:54:50.072Z,13.87
2018-12-19T01:57:17.998Z,13.47
2018-12-19T01:59:45.746Z,13.00
2018-12-19T02:02:13.646Z,14.43
2018-12-19T02:04:41.406Z,15.50
2018-12-19T02:07:09.187Z,13.43
2018-12-19T02:09:37.354Z,14.17
2018-12-19T02:12:05.451Z,14.37
2018-12-19T02:14:33.255Z,13.13
2018-12-19T02:17:01.010Z,12.87
2018-12-19T02:19:28.784Z,13.13
2018-12-19T02:21:56.558Z,13.37
2018-12-19T02:24:24.283Z,14.03
2018-12-19T02:26:52.095Z,13.30
2018-12-19T02:29:19.834Z,12.97
2018-12-19T02:31:47.582Z,13.03
2018-12-19T02:34:15.966Z,13.03
2018-12-19T02:36:43.701Z,12.13
2018-12-19T02:39:12.023Z,13.53
2018-12-19T02:41:39.806Z,16.33
2018-12-19T02:44:07.626Z,16.73
2018-12-19T02:46:35.499Z,18.47
2018-12-19T02:49:03.337Z,19.70
2018-12-19T02:51:31.116Z,18.67
2018-12-19T02:53:58.908Z,18.20
2018-12-19T02:56:26.688Z,22.13
2018-12-19T02:58:54.457Z,20.40
2018-12-19T03:01:22.231Z,15.80
2018-12-19T03:03:50.014Z,18.70
2018-12-19T03:06:17.838Z,17.83
2018-12-19T03:08:45.615Z,14.97
2018-12-19T03:11:13.418Z,17.00
2018-12-19T03:13:41.412Z,17.10
2018-12-19T03:16:09.163Z,12.27
2018-12-19T03:18:37.311Z,9.97
2018-12-19T03:21:05.288Z,10.67
2018-12-19T03:23:33.104Z,9.67
2018-12-19T03:26:00.868Z,9.80
2018-12-19T03:28:28.672Z,19.60
2018-12-19T03:30:56.462Z,19.93
2018-12-19T03:33:24.306Z,21.67
2018-12-19T03:35:52.057Z,23.20
2018-12-19T03:38:24.391Z,22.43
2018-12-19T03:40:52.328Z,21.97
2018-12-19T03:43:20.219Z,22.37
2018-12-19T03:45:48.022Z,22.97
2018-12-19T03:48:21.275Z,22.90
2018-12-19T03:50:49.246Z,23.47
2018-12-19T03:53:17.035Z,22.00
2018-12-19T03:55:44.833Z,22.30
2018-12-19T03:58:12.897Z,18.03
2018-12-19T04:00:40.652Z,19.57
2018-12-19T04:03:08.403Z,13.80
2018-12-19T04:05:36.264Z,14.83
2018-12-19T04:08:04.048Z,12.67
2018-12-19T04:10:32.583Z,18.87
2018-12-19T04:13:00.440Z,17.80
2018-12-19T04:15:28.220Z,17.57
2018-12-19T04:17:56.033Z,15.77
2018-12-19T04:20:23.899Z,13.13
2018-12-19T04:22:51.824Z,13.20
2018-12-19T04:25:19.843Z,13.90
2018-12-19T04:27:47.625Z,10.63
2018-12-19T04:30:15.361Z,8.37
2018-12-19T04:32:43.451Z,9.00
2018-12-19T04:35:11.273Z,9.20
2018-12-19T04:37:39.034Z,12.10
2018-12-19T04:40:06.933Z,11.30
2018-12-19T04:42:34.740Z,12.73
2018-12-19T04:45:02.661Z,12.33
2018-12-19T04:47:30.454Z,18.70
2018-12-19T04:49:58.251Z,18.80
2018-12-19T04:52:26.011Z,23.23
2018-12-19T04:54:53.796Z,21.43
2018-12-19T04:57:21.666Z,20.93
2018-12-19T04:59:49.609Z,20.57
2018-12-19T05:02:17.416Z,18.43
2018-12-19T05:04:45.313Z,20.07
2018-12-19T05:07:13.667Z,18.57
2018-12-19T05:09:41.525Z,20.77
2018-12-19T05:12:09.347Z,20.20
2018-12-19T05:14:37.319Z,20.53
2018-12-19T05:17:05.191Z,19.80
2018-12-19T05:19:33.006Z,17.20
2018-12-19T05:22:00.795Z,20.13
2018-12-19T05:24:28.540Z,20.17
2018-12-19T05:26:56.510Z,19.90
2018-12-19T05:29:24.391Z,20.27
2018-12-19T05:31:52.256Z,19.53
2018-12-19T05:34:20.350Z,20.37
2018-12-19T05:36:48.390Z,18.53
2018-12-19T05:39:17.919Z,17.77
2018-12-19T05:41:46.009Z,19.37
2018-12-19T05:44:13.759Z,20.33
2018-12-19T05:46:41.500Z,20.67
2018-12-19T05:49:09.254Z,20.73
2018-12-19T05:51:37.131Z,20.93
2018-12-19T05:54:04.918Z,19.53
2018-12-19T05:56:32.682Z,19.50
2018-12-19T05:59:00.706Z,20.83
2018-12-19T06:01:28.466Z,21.20
2018-12-19T06:03:56.493Z,21.10
2018-12-19T06:06:24.286Z,20.27
2018-12-19T06:08:52.122Z,22.80
2018-12-19T06:11:20.143Z,20.80
2018-12-19T06:13:47.883Z,19.00
2018-12-19T06:16:15.692Z,16.63
2018-12-19T06:18:43.454Z,18.33
2018-12-19T06:21:11.238Z,17.87
2018-12-19T06:23:39.004Z,17.23
2018-12-19T06:26:06.810Z,17.10
2018-12-19T06:28:34.539Z,14.77
2018-12-19T06:31:02.307Z,14.87
2018-12-19T06:33:30.038Z,12.27
2018-12-19T06:35:57.783Z,14.53
2018-12-19T06:38:25.594Z,12.93
2018-12-19T06:40:53.439Z,7.40
2018-12-19T06:43:21.243Z,6.23
2018-12-19T06:45:49.066Z,5.03
2018-12-19T06:48:16.858Z,4.53
2018-12-19T06:50:44.597Z,5.20
2018-12-19T06:53:12.363Z,4.47
2018-12-19T06:55:40.242Z,4.47
2018-12-19T06:58:08.339Z,3.97
2018-12-19T07:00:36.166Z,4.77
2018-12-19T07:03:03.948Z,3.97
2018-12-19T07:05:32.815Z,4.43
2018-12-19T07:08:00.624Z,4.00
2018-12-19T07:10:28.457Z,4.50
2018-12-19T07:12:56.256Z,4.30
2018-12-19T07:15:24.064Z,4.33
2018-12-19T07:17:52.029Z,4.63
2018-12-19T07:20:20.195Z,4.87
2018-12-19T07:22:47.962Z,4.47
2018-12-19T07:25:15.803Z,3.70
2018-12-19T07:27:43.620Z,4.70
2018-12-19T07:30:11.460Z,6.40
2018-12-19T07:32:39.262Z,7.73
2018-12-19T07:35:07.099Z,8.37
2018-12-19T07:37:34.939Z,6.67
2018-12-19T07:40:03.639Z,4.73
2018-12-19T07:42:31.451Z,4.40
2018-12-19T07:44:59.269Z,4.77
2018-12-19T07:47:27.036Z,4.47
2018-12-19T07:49:54.838Z,4.40
2018-12-19T07:52:22.637Z,7.17
2018-12-19T07:54:50.604Z,7.90
2018-12-19T07:57:18.636Z,9.03
2018-12-19T07:59:46.412Z,10.27
2018-12-19T08:02:15.234Z,10.13
2018-12-19T08:04:43.248Z,12.13
2018-12-19T08:07:11.034Z,12.30
2018-12-19T08:09:38.785Z,14.03
2018-12-19T08:12:09.482Z,12.77
2018-12-19T08:14:37.454Z,10.33
2018-12-19T08:17:05.241Z,11.20
2018-12-19T08:19:33.055Z,11.07
2018-12-19T08:22:00.872Z,12.03
2018-12-19T08:24:28.651Z,10.50
2018-12-19T08:26:56.455Z,9.80
2018-12-19T08:29:24.632Z,9.67
2018-12-19T08:31:52.516Z,10.23
2018-12-19T08:34:20.383Z,10.30
2018-12-19T08:36:48.154Z,8.30
2018-12-19T08:39:16.284Z,5.60
2018-12-19T08:41:44.367Z,5.27
2018-12-19T08:44:12.159Z,5.57
2018-12-19T08:46:39.919Z,4.90
2018-12-19T08:49:07.699Z,4.87
2018-12-19T08:51:35.463Z,3.97
2018-12-19T08:54:03.241Z,4.30
2018-12-19T08:56:31.069Z,4.60
2018-12-19T08:58:58.918Z,3.97
2018-12-19T09:01:26.655Z,3.90
2018-12-19T09:03:54.783Z,4.10
2018-12-19T09:06:22.577Z,4.37
2018-12-19T09:08:50.328Z,3.67
2018-12-19T09:11:18.267Z,4.33
2018-12-19T09:13:46.074Z,4.73
2018-12-19T09:16:13.895Z,4.37
2018-12-19T09:18:41.678Z,4.83
2018-12-19T09:21:09.983Z,5.70
2018-12-19T09:23:37.723Z,7.93
2018-12-19T09:26:05.646Z,12.57
2018-12-19T09:28:33.421Z,13.37
2018-12-19T09:31:01.218Z,13.07
2018-12-19T09:33:29.008Z,11.97
2018-12-19T09:35:56.819Z,12.60
2018-12-19T09:38:24.679Z,12.07
2018-12-19T09:40:52.547Z,13.30
2018-12-19T09:43:20.302Z,13.20
2018-12-19T09:45:48.409Z,13.17
2018-12-19T09:48:16.263Z,11.93
2018-12-19T09:50:43.986Z,11.87
2018-12-19T09:53:11.762Z,10.80
2018-12-19T09:55:39.539Z,11.37
2018-12-19T09:58:07.302Z,10.77
2018-12-19T10:00:35.619Z,11.70
2018-12-19T10:03:03.339Z,11.60
2018-12-19T10:05:31.387Z,12.37
2018-12-19T10:07:59.286Z,11.60
2018-12-19T10:10:27.095Z,12.87
2018-12-19T10:12:54.965Z,13.07
2018-12-19T10:15:22.938Z,14.03
2018-12-19T10:17:50.743Z,13.43
2018-12-19T10:20:18.675Z,13.97
2018-12-19T10:22:48.540Z,13.20
2018-12-19T10:25:16.363Z,7.73
2018-12-19T10:27:44.147Z,4.50
2018-12-19T10:30:13.531Z,4.57
2018-12-19T10:32:41.368Z,4.10
2018-12-19T10:35:10.505Z,4.03
2018-12-19T10:37:38.331Z,8.67
2018-12-19T10:40:09.218Z,66.20
2018-12-19T10:42:37.195Z,58.17
2018-12-19T10:45:07.348Z,13.27
2018-12-19T10:47:35.414Z,7.43
2018-12-19T10:50:03.988Z,9.90
2018-12-19T10:52:31.739Z,10.83
2018-12-19T10:54:59.567Z,7.73
2018-12-19T10:57:27.395Z,7.67
2018-12-19T10:59:55.289Z,5.50
2018-12-19T11:02:23.115Z,7.40
2018-12-19T11:04:50.863Z,9.73
2018-12-19T11:07:21.542Z,8.20
2018-12-19T11:09:49.294Z,8.90
2018-12-19T11:12:17.232Z,9.40
2018-12-19T11:14:44.985Z,9.33
2018-12-19T11:17:12.802Z,9.30
2018-12-19T11:19:40.537Z,8.37
2018-12-19T11:22:10.194Z,7.40
2018-12-19T11:24:38.531Z,7.03
2018-12-19T11:27:06.502Z,5.70
2018-12-19T11:29:34.280Z,5.50
2018-12-19T11:32:02.275Z,6.73
2018-12-19T11:34:30.023Z,5.53
2018-12-19T11:36:57.831Z,5.70
2018-12-19T11:39:25.811Z,6.30
2018-12-19T11:41:53.626Z,7.83
2018-12-19T11:44:21.490Z,8.50
2018-12-19T11:46:49.307Z,10.13
2018-12-19T11:49:17.102Z,10.03
2018-12-19T11:51:44.958Z,11.33
2018-12-19T11:54:12.743Z,9.23
2018-12-19T11:56:40.569Z,8.93
2018-12-19T11:59:08.294Z,8.10
2018-12-19T12:01:41.355Z,7.00
2018-12-19T12:04:05.957Z,5.50
2018-12-19T12:06:33.711Z,6.00
2018-12-19T12:09:01.481Z,4.87
2018-12-19T12:11:29.602Z,4.97
2018-12-19T12:13:57.394Z,5.70
2018-12-19T12:16:25.155Z,5.60
2018-12-19T12:18:53.025Z,5.67
2018-12-19T12:21:20.818Z,5.83
2018-12-19T12:23:48.568Z,6.07
2018-12-19T12:26:16.307Z,6.00
2018-12-19T12:28:44.071Z,5.77
2018-12-19T12:31:11.783Z,5.10
2018-12-19T12:33:39.532Z,5.60
2018-12-19T12:36:07.442Z,7.17
2018-12-19T12:38:35.323Z,9.10
2018-12-19T12:41:03.120Z,9.40
2018-12-19T12:43:30.856Z,9.53
2018-12-19T12:45:58.632Z,9.33
2018-12-19T12:48:26.512Z,8.93
2018-12-19T12:50:54.452Z,9.47
2018-12-19T12:53:22.188Z,9.20
2018-12-19T12:55:49.971Z,12.30
2018-12-19T12:58:17.860Z,11.33
2018-12-19T13:00:45.681Z,9.40
2018-12-19T13:03:13.426Z,8.83
2018-12-19T13:05:41.184Z,9.43
2018-12-19T13:08:08.934Z,9.50
2018-12-19T13:10:36.743Z,10.10
2018-12-19T13:13:04.536Z,9.50
2018-12-19T13:15:43.150Z,12.30
2018-12-19T13:18:10.894Z,12.17
2018-12-19T13:20:38.630Z,13.90
2018-12-19T13:23:06.402Z,15.63
2018-12-19T13:25:34.170Z,17.30
2018-12-19T13:28:02.455Z,17.93
2018-12-19T13:30:30.260Z,19.33
2018-12-19T13:32:58.138Z,21.70
2018-12-19T13:35:26.118Z,23.83
2018-12-19T13:37:53.852Z,23.97
2018-12-19T13:40:21.610Z,25.37
2018-12-19T13:42:49.425Z,24.23
2018-12-19T13:45:17.419Z,25.20
2018-12-19T13:47:45.155Z,27.13
2018-12-19T13:50:12.907Z,26.33
2018-12-19T13:52:40.671Z,26.40
2018-12-19T13:55:08.459Z,24.80
2018-12-19T13:57:36.279Z,25.50
2018-12-19T14:00:06.442Z,24.63
2018-12-19T14:02:34.229Z,23.93
2018-12-19T14:05:02.004Z,21.23
2018-12-19T14:07:29.863Z,22.70
2018-12-19T14:09:57.853Z,23.53
2018-12-19T14:12:25.705Z,22.83
2018-12-19T14:14:53.583Z,24.73
2018-12-19T14:17:21.645Z,25.73
2018-12-19T14:19:49.430Z,24.17
2018-12-19T14:22:17.382Z,25.27
2018-12-19T14:24:45.247Z,25.57
2018-12-19T14:27:13.031Z,25.77
2018-12-19T14:29:40.863Z,24.07
2018-12-19T14:32:08.670Z,23.83
2018-12-19T14:34:36.566Z,22.53
2018-12-19T14:37:04.324Z,23.23
2018-12-19T14:39:32.098Z,21.67
2018-12-19T14:41:59.954Z,22.07
2018-12-19T14:44:27.933Z,27.83
2018-12-19T14:46:56.127Z,27.43
2018-12-19T14:49:23.910Z,27.87
2018-12-19T14:51:51.742Z,26.43
2018-12-19T14:54:19.620Z,27.50
2018-12-19T14:56:47.413Z,24.60
2018-12-19T14:59:15.181Z,21.50
2018-12-19T15:01:42.981Z,20.73
2018-12-19T15:04:11.012Z,20.57
2018-12-19T15:06:38.903Z,19.80
2018-12-19T15:09:06.921Z,19.47
2018-12-19T15:11:35.220Z,20.60
2018-12-19T15:14:03.088Z,21.63
2018-12-19T15:16:31.051Z,22.40
2018-12-19T15:18:59.032Z,21.33
2018-12-19T15:21:27.015Z,23.83
2018-12-19T15:23:54.919Z,21.77
2018-12-19T15:26:22.747Z,21.80
2018-12-19T15:28:50.551Z,34.20
2018-12-19T15:31:18.361Z,28.67
2018-12-19T15:33:46.178Z,28.90
2018-12-19T15:36:14.160Z,29.17
2018-12-19T15:38:42.048Z,27.07
2018-12-19T15:41:10.226Z,27.27
2018-12-19T15:43:38.343Z,27.30
2018-12-19T15:46:07.424Z,24.33
2018-12-19T15:48:35.179Z,20.20
2018-12-19T15:51:03.050Z,19.50
2018-12-19T15:53:30.811Z,16.37
2018-12-19T15:55:58.559Z,16.53
2018-12-19T15:58:26.667Z,19.00
2018-12-19T16:00:54.418Z,15.90
2018-12-19T16:03:22.179Z,14.83
2018-12-19T16:05:50.415Z,11.47
2018-12-19T16:08:18.271Z,12.97
2018-12-19T16:10:46.050Z,15.00
2018-12-19T16:13:13.833Z,16.70
2018-12-19T16:15:41.626Z,19.87
2018-12-19T16:18:09.424Z,18.30
2018-12-19T16:20:37.311Z,15.23
2018-12-19T16:23:05.081Z,29.03
2018-12-19T16:25:32.803Z,25.00
2018-12-19T16:28:04.222Z,14.03
2018-12-19T16:30:31.995Z,12.67
2018-12-19T16:32:59.824Z,12.50
2018-12-19T16:35:27.663Z,12.37
2018-12-19T16:37:55.602Z,11.03
2018-12-19T16:40:23.380Z,10.97
2018-12-19T16:42:51.635Z,11.23
2018-12-19T16:45:19.440Z,12.67
2018-12-19T16:47:47.214Z,14.80
2018-12-19T16:50:15.031Z,16.23
2018-12-19T16:52:42.814Z,16.40
2018-12-19T16:55:10.568Z,15.83
2018-12-19T16:57:38.338Z,15.33
2018-12-19T17:00:07.387Z,14.67
2018-12-19T17:02:35.259Z,16.07
2018-12-19T17:05:03.407Z,17.27
2018-12-19T17:07:31.191Z,19.73
2018-12-19T17:09:59.023Z,20.70
2018-12-19T17:12:26.995Z,22.77
2018-12-19T17:14:54.804Z,24.83
2018-12-19T17:17:22.579Z,26.67
2018-12-19T17:19:50.379Z,27.97
2018-12-19T17:22:18.311Z,28.37
2018-12-19T17:24:46.143Z,28.27
2018-12-19T17:27:13.957Z,29.30
2018-12-19T17:29:41.761Z,29.67
2018-12-19T17:32:09.563Z,30.43
2018-12-19T17:34:37.395Z,28.60
2018-12-19T17:37:05.289Z,29.93
2018-12-19T17:39:33.397Z,28.73
2018-12-19T17:42:03.535Z,28.57
2018-12-19T17:44:31.339Z,27.03
2018-12-19T17:46:59.384Z,27.37
2018-12-19T17:49:27.683Z,27.27
2018-12-19T17:51:55.512Z,27.03
2018-12-19T17:54:23.411Z,26.90
2018-12-19T17:56:51.251Z,25.57
2018-12-19T17:59:19.109Z,26.83
2018-12-19T18:01:47.167Z,26.67
2018-12-19T18:04:15.051Z,26.03
2018-12-19T18:06:42.847Z,28.30
2018-12-19T18:09:10.615Z,29.97
2018-12-19T18:11:38.410Z,30.90
2018-12-19T18:14:06.531Z,31.97
2018-12-19T18:16:34.366Z,34.30
2018-12-19T18:19:02.330Z,38.77
2018-12-19T18:21:30.283Z,35.90
2018-12-19T18:23:58.119Z,34.77
2018-12-19T18:26:25.916Z,33.63
2018-12-19T18:28:53.971Z,33.93
2018-12-19T18:31:21.699Z,32.67
2018-12-19T18:33:49.525Z,34.70
2018-12-19T18:36:17.396Z,34.37
2018-12-19T18:38:45.258Z,33.60
2018-12-19T18:41:13.367Z,33.23
2018-12-19T18:43:45.860Z,31.53
2018-12-19T18:46:13.667Z,31.13
2018-12-19T18:48:41.428Z,28.97
2018-12-19T18:51:09.986Z,29.43
2018-12-19T18:53:37.798Z,26.90
2018-12-19T18:56:05.685Z,26.93
2018-12-19T18:58:33.578Z,24.10
2018-12-19T19:01:01.525Z,23.43
2018-12-19T19:03:29.419Z,23.23
2018-12-19T19:05:57.335Z,23.30
2018-12-19T19:08:25.235Z,24.67
2018-12-19T19:10:53.122Z,23.77
2018-12-19T19:13:20.863Z,25.17
2018-12-19T19:15:49.234Z,23.07
2018-12-19T19:18:18.364Z,24.37
2018-12-19T19:20:46.162Z,25.50
2018-12-19T19:23:13.990Z,26.30
2018-12-19T19:25:41.795Z,27.23
2018-12-19T19:28:09.891Z,27.73
2018-12-19T19:30:37.680Z,27.43
2018-12-19T19:33:05.432Z,27.33
2018-12-19T19:35:33.286Z,27.47
2018-12-19T19:38:01.066Z,28.33
2018-12-19T19:40:30.138Z,27.87
2018-12-19T19:42:58.043Z,32.43
2018-12-19T19:45:26.284Z,35.93
2018-12-19T19:47:54.123Z,33.87
2018-12-19T19:50:21.952Z,32.50
2018-12-19T19:52:50.650Z,31.43
2018-12-19T19:55:18.659Z,32.00
2018-12-19T19:57:47.247Z,29.50
2018-12-19T20:00:20.446Z,25.30
2018-12-19T20:02:48.254Z,23.93
2018-12-19T20:05:16.007Z,22.73
2018-12-19T20:07:43.839Z,24.33
2018-12-19T20:10:11.567Z,24.13
2018-12-19T20:12:39.368Z,25.07
2018-12-19T20:15:07.348Z,25.23
2018-12-19T20:17:35.318Z,24.77
2018-12-19T20:20:03.767Z,49.97
2018-12-19T20:22:31.923Z,30.90
2018-12-19T20:25:00.047Z,25.73
2018-12-19T20:27:28.176Z,22.37
2018-12-19T20:29:56.023Z,21.90
2018-12-19T20:32:24.373Z,22.50
2018-12-19T20:34:52.401Z,23.23
2018-12-19T20:37:20.389Z,23.33
2018-12-19T20:39:48.354Z,23.27
2018-12-19T20:42:16.334Z,23.83
2018-12-19T20:44:44.293Z,23.27
2018-12-19T20:47:12.088Z,24.40
2018-12-19T20:49:39.882Z,22.77
2018-12-19T20:52:10.343Z,22.00
2018-12-19T20:54:38.191Z,20.90
2018-12-19T20:57:06.902Z,22.07
2018-12-19T20:59:34.939Z,21.20
2018-12-19T21:02:03.443Z,21.37
2018-12-19T21:04:31.518Z,22.70
2018-12-19T21:06:59.675Z,25.47
2018-12-19T21:09:27.476Z,28.53
2018-12-19T21:11:55.307Z,31.07
2018-12-19T21:14:23.125Z,30.10
2018-12-19T21:16:56.834Z,32.57
2018-12-19T21:19:24.638Z,31.80
2018-12-19T21:21:52.442Z,32.40
2018-12-19T21:24:20.245Z,32.00
2018-12-19T21:26:47.999Z,32.17
2018-12-19T21:29:15.844Z,32.63
2018-12-19T21:31:43.656Z,32.70
2018-12-19T21:34:11.454Z,32.20
2018-12-19T21:36:39.258Z,32.20
2018-12-19T21:39:09.172Z,32.70
2018-12-19T21:41:37.066Z,31.90
2018-12-19T21:44:05.007Z,31.83
2018-12-19T21:46:32.811Z,31.73
2018-12-19T21:49:00.655Z,31.53
2018-12-19T21:51:28.528Z,30.63
2018-12-19T21:53:56.351Z,32.13
2018-12-19T21:56:24.475Z,32.30
2018-12-19T21:58:52.223Z,31.93
2018-12-19T22:01:20.014Z,32.07
2018-12-19T22:03:47.844Z,32.00
2018-12-19T22:06:15.839Z,31.43
2018-12-19T22:08:43.603Z,31.00
2018-12-19T22:11:12.335Z,31.73
2018-12-19T22:13:40.204Z,32.90
2018-12-19T22:16:10.952Z,32.63
2018-12-19T22:18:54.299Z,33.97
2018-12-19T22:21:22.248Z,37.97
2018-12-19T22:23:50.179Z,36.67
2018-12-19T22:26:18.063Z,35.90
2018-12-19T22:28:45.862Z,31.10
2018-12-19T22:31:13.672Z,33.00
2018-12-19T22:33:41.431Z,31.60
2018-12-19T22:36:09.262Z,31.77
2018-12-19T22:38:37.153Z,29.53
2018-12-19T22:41:05.151Z,29.23
2018-12-19T22:43:33.099Z,29.83
2018-12-19T22:46:01.151Z,22.03
2018-12-19T22:48:29.203Z,20.60
2018-12-19T22:50:57.034Z,19.53
2018-12-19T22:53:24.928Z,19.77
2018-12-19T22:55:52.696Z,18.53
2018-12-19T22:58:20.522Z,19.67
2018-12-19T23:00:54.995Z,20.00
2018-12-19T23:03:27.717Z,19.03
2018-12-19T23:05:55.604Z,17.53
2018-12-19T23:08:23.357Z,19.40
2018-12-19T23:10:51.166Z,18.77
2018-12-19T23:13:19.982Z,19.50
2018-12-19T23:15:47.812Z,18.90
2018-12-19T23:18:21.235Z,21.67
2018-12-19T23:20:49.787Z,20.87
2018-12-19T23:23:18.060Z,21.93
2018-12-19T23:25:46.010Z,26.47
2018-12-19T23:28:14.128Z,21.43
2018-12-19T23:30:44.136Z,23.80
2018-12-19T23:33:12.129Z,24.20
2018-12-19T23:35:39.939Z,22.33
2018-12-19T23:38:07.998Z,19.57
2018-12-19T23:40:35.983Z,17.13
2018-12-19T23:43:03.890Z,18.83
2018-12-19T23:45:31.724Z,17.83
2018-12-19T23:47:59.603Z,20.07
2018-12-19T23:50:27.648Z,21.20
2018-12-19T23:52:55.713Z,22.23
2018-12-19T23:55:23.594Z,22.93
2018-12-19T23:57:51.497Z,23.87
